Time;durP1;ratioP1;P1;durP2;ratioP2;P2;SDS_P1;SDS_P2;PMS_P1;PMS_P2;Temp;Humidity;BMP_temperature;BMP_pressure;BME280_temperature;BME280_humidity;BME280_pressure;Samples;Min_cycle;Max_cycle;Signal;HPM_P1;HPM_P2
2022/01/13 00:01:30;;;;;;;2.25;1.48;;;19.40;47.80;;;;;;6189155;28;20042;-67
2022/01/13 00:04:30;;;;;;;2.08;1.40;;;19.40;47.80;;;;;;6197191;28;20037;-67
2022/01/13 00:07:31;;;;;;;2.55;1.58;;;19.40;47.70;;;;;;6191790;28;20042;-67
2022/01/13 00:10:32;;;;;;;2.90;1.80;;;19.40;47.80;;;;;;6197119;28;20140;-67
2022/01/13 00:13:46;;;;;;;2.90;1.67;;;19.40;47.80;;;;;;6197727;28;20034;-67
2022/01/13 00:17:10;;;;;;;2.55;1.83;;;19.50;47.90;;;;;;6197447;28;20396;-67
2022/01/13 00:26:37;;;;;;;2.35;1.58;;;19.40;47.80;;;;;;6197279;28;20042;-67
2022/01/13 00:29:43;;;;;;;2.85;1.60;;;19.40;47.80;;;;;;6196918;28;20116;-67
2022/01/13 00:32:45;;;;;;;2.58;1.50;;;19.40;47.80;;;;;;6196964;28;20590;-67
2022/01/13 00:35:46;;;;;;;1.98;1.38;;;19.40;47.90;;;;;;6197091;28;20026;-67
2022/01/13 00:38:46;;;;;;;2.00;1.50;;;19.50;48.00;;;;;;6197060;28;20451;-67
2022/01/13 00:41:47;;;;;;;1.65;1.33;;;19.40;47.90;;;;;;6196425;28;20035;-67
2022/01/13 00:44:48;;;;;;;2.40;1.48;;;19.40;47.90;;;;;;6196401;28;20093;-68
2022/01/13 00:47:49;;;;;;;1.95;1.40;;;19.40;47.90;;;;;;6196647;28;20137;-67
2022/01/13 00:50:50;;;;;;;2.25;1.38;;;19.40;47.90;;;;;;6196566;28;20026;-67
2022/01/13 00:53:51;;;;;;;2.03;1.50;;;19.40;47.90;;;;;;6175057;28;20516;-67
2022/01/13 00:56:52;;;;;;;1.85;1.35;;;19.40;47.90;;;;;;6172934;28;20540;-67
2022/01/13 00:59:52;;;;;;;2.53;1.55;;;19.40;47.90;;;;;;6176118;28;20053;-67
2022/01/13 01:02:53;;;;;;;2.00;1.52;;;19.40;47.90;;;;;;6196286;28;20035;-67
2022/01/13 01:05:54;;;;;;;2.25;1.60;;;19.40;47.90;;;;;;6194021;28;20370;-67
2022/01/13 01:08:55;;;;;;;1.98;1.50;;;19.40;47.90;;;;;;6195945;28;20054;-67
2022/01/13 01:11:56;;;;;;;1.85;1.40;;;19.40;47.90;;;;;;6194856;28;20042;-67
2022/01/13 01:14:58;;;;;;;2.33;1.40;;;19.40;47.90;;;;;;6196036;28;20034;-67
2022/01/13 01:18:05;;;;;;;1.60;1.20;;;19.40;47.90;;;;;;6196192;28;20042;-67
2022/01/13 01:27:22;;;;;;;2.00;1.42;;;19.40;47.90;;;;;;6195387;28;20081;-67
2022/01/13 01:30:39;;;;;;;1.73;1.25;;;19.40;48.00;;;;;;6195669;28;20473;-67
2022/01/13 01:33:45;;;;;;;3.08;1.58;;;19.40;48.00;;;;;;6195431;28;20136;-67
2022/01/13 01:36:46;;;;;;;1.30;1.13;;;19.40;48.60;;;;;;6195079;28;20438;-67
2022/01/13 01:39:49;;;;;;;1.90;1.40;;;19.40;48.00;;;;;;6195415;28;20042;-67
2022/01/13 01:42:50;;;;;;;2.05;1.35;;;19.40;48.00;;;;;;6193405;28;20044;-67
2022/01/13 01:45:53;;;;;;;3.60;1.70;;;19.40;48.00;;;;;;6195342;28;20027;-67
2022/01/13 01:48:54;;;;;;;2.85;1.33;;;19.40;48.00;;;;;;6195254;28;20030;-67
2022/01/13 01:51:57;;;;;;;2.25;1.33;;;19.40;48.00;;;;;;6190805;28;20026;-67
2022/01/13 01:54:58;;;;;;;2.13;1.50;;;19.40;48.00;;;;;;6170876;28;20027;-67
2022/01/13 01:57:58;;;;;;;2.05;1.50;;;19.40;48.00;;;;;;6171009;28;20540;-67
2022/01/13 02:01:00;;;;;;;3.15;1.52;;;19.40;48.00;;;;;;6183768;28;20084;-67
2022/01/13 02:04:00;;;;;;;2.08;1.60;;;19.40;48.00;;;;;;6194995;28;20108;-67
2022/01/13 02:07:05;;;;;;;1.45;1.10;;;19.40;48.00;;;;;;6194789;28;20334;-67
2022/01/13 02:10:07;;;;;;;1.77;1.17;;;19.40;48.00;;;;;;6194708;28;20034;-67
2022/01/13 02:13:11;;;;;;;2.67;1.50;;;19.40;48.00;;;;;;6194880;28;20034;-68
2022/01/13 02:16:36;;;;;;;2.15;1.27;;;19.40;48.00;;;;;;6194766;28;20512;-67
2022/01/13 02:19:34;;;;;;;2.75;1.58;;;19.40;48.00;;;;;;6194809;28;20117;-67
2022/01/13 02:22:36;;;;;;;1.75;1.35;;;19.40;48.00;;;;;;6193325;28;20062;-67
2022/01/13 02:25:36;;;;;;;2.15;1.20;;;19.40;48.00;;;;;;6194425;28;20500;-67
2022/01/13 02:28:38;;;;;;;2.22;1.30;;;19.40;48.10;;;;;;6194996;28;20045;-67
2022/01/13 02:31:38;;;;;;;2.35;1.30;;;19.40;48.10;;;;;;6194562;28;20030;-67
2022/01/13 02:34:39;;;;;;;2.42;1.55;;;19.40;48.10;;;;;;6193717;28;20031;-67
2022/01/13 02:37:40;;;;;;;1.83;1.30;;;19.40;48.10;;;;;;6194468;28;20038;-67
2022/01/13 02:40:40;;;;;;;2.38;1.38;;;19.40;48.10;;;;;;6194820;28;20043;-67
2022/01/13 02:43:43;;;;;;;1.83;1.25;;;19.40;48.10;;;;;;6194395;28;20025;-67
2022/01/13 02:49:49;;;;;;;2.15;1.23;;;19.40;48.10;;;;;;6194748;28;20390;-68
2022/01/13 02:52:49;;;;;;;2.72;1.40;;;19.30;48.00;;;;;;6183087;28;20034;-68
2022/01/13 02:55:51;;;;;;;1.30;0.98;;;19.30;48.10;;;;;;6170128;28;20030;-67
2022/01/13 02:58:51;;;;;;;1.65;1.20;;;19.30;48.10;;;;;;6170230;28;20553;-68
2022/01/13 03:01:52;;;;;;;2.47;1.23;;;19.30;48.00;;;;;;6194007;28;20049;-67
2022/01/13 03:04:53;;;;;;;2.38;1.25;;;19.30;48.10;;;;;;6195713;28;20034;-67
2022/01/13 03:07:53;;;;;;;1.90;1.20;;;19.30;48.00;;;;;;6198806;28;20497;-67
2022/01/13 03:10:54;;;;;;;1.70;1.30;;;19.30;48.10;;;;;;6198903;28;20033;-67
2022/01/13 03:13:55;;;;;;;2.63;1.25;;;19.30;48.10;;;;;;6198878;28;20023;-68
2022/01/13 03:16:55;;;;;;;1.52;1.20;;;19.30;48.10;;;;;;6198702;28;20030;-68
2022/01/13 03:19:56;;;;;;;1.75;1.13;;;19.30;48.10;;;;;;6198469;28;20408;-67
2022/01/13 03:22:56;;;;;;;1.80;1.23;;;19.30;48.10;;;;;;6196843;28;20493;-67
2022/01/13 03:25:57;;;;;;;2.70;1.40;;;19.40;48.20;;;;;;6198303;28;20513;-67
2022/01/13 03:32:13;;;;;;;;;;;19.30;48.10;;;;;;6198500;28;20037;-67
2022/01/13 03:35:13;;;;;;;1.38;1.10;;;19.30;48.10;;;;;;6198459;28;19910;-67
2022/01/13 03:38:14;;;;;;;2.25;1.38;;;19.30;48.10;;;;;;6198277;28;20158;-67
2022/01/13 03:41:15;;;;;;;2.15;1.15;;;19.30;48.10;;;;;;6198153;28;20446;-67
2022/01/13 03:44:27;;;;;;;2.35;1.20;;;19.30;48.20;;;;;;6198048;28;20035;-67
2022/01/13 03:47:28;;;;;;;3.53;1.20;;;19.30;48.10;;;;;;6198013;28;20038;-68
2022/01/13 03:50:28;;;;;;;1.67;1.17;;;19.30;48.10;;;;;;6198158;28;20247;-67
2022/01/13 03:53:29;;;;;;;1.38;1.00;;;19.30;48.20;;;;;;6181665;28;20101;-67
2022/01/13 03:56:49;;;;;;;2.72;1.65;;;19.30;48.10;;;;;;6186250;28;20448;-67
2022/01/13 04:00:42;;;;;;;1.80;1.10;;;19.30;48.10;;;;;;6197282;28;20026;-67
2022/01/13 04:03:43;;;;;;;1.40;1.20;;;19.30;48.10;;;;;;6197739;28;20018;-67
2022/01/13 04:06:45;;;;;;;1.83;1.08;;;19.30;48.10;;;;;;6197637;28;20065;-67
2022/01/13 04:09:46;;;;;;;2.78;1.20;;;19.30;48.10;;;;;;6197024;28;20145;-67
2022/01/13 04:12:46;;;;;;;2.47;1.40;;;19.30;48.10;;;;;;6197453;28;20052;-67
2022/01/13 04:15:47;;;;;;;2.25;1.35;;;19.30;48.10;;;;;;6195040;28;20057;-67
2022/01/13 04:18:49;;;;;;;1.27;1.08;;;19.30;48.10;;;;;;6194953;28;20034;-68
2022/01/13 04:21:50;;;;;;;2.13;1.27;;;19.30;48.10;;;;;;6196028;28;20050;-67
2022/01/13 04:24:51;;;;;;;1.73;1.23;;;19.30;48.10;;;;;;6196811;28;20065;-67
2022/01/13 04:28:00;;;;;;;1.42;1.00;;;19.30;48.10;;;;;;6197053;28;20081;-67
2022/01/13 04:31:01;;;;;;;2.58;1.13;;;19.30;48.20;;;;;;6196754;28;20392;-67
2022/01/13 04:34:02;;;;;;;1.95;1.17;;;19.30;48.10;;;;;;6197104;28;20050;-67
2022/01/13 04:37:03;;;;;;;1.95;1.27;;;19.30;48.20;;;;;;6195074;28;20030;-67
2022/01/13 04:40:05;;;;;;;2.38;1.02;;;19.30;48.20;;;;;;6196857;28;20485;-67
2022/01/13 04:43:05;;;;;;;3.05;1.40;;;19.30;48.20;;;;;;6196596;28;20085;-67
2022/01/13 04:46:06;;;;;;;1.73;1.23;;;19.30;48.20;;;;;;6195795;28;20477;-68
2022/01/13 04:49:07;;;;;;;1.67;1.20;;;19.30;48.10;;;;;;6196502;28;20038;-67
2022/01/13 04:52:07;;;;;;;2.13;1.30;;;19.30;48.10;;;;;;6191069;28;20038;-67
2022/01/13 04:55:11;;;;;;;2.33;1.30;;;19.30;48.10;;;;;;6171169;28;20061;-67
2022/01/13 04:58:11;;;;;;;2.28;1.10;;;19.30;48.10;;;;;;6172505;28;20039;-67
2022/01/13 05:01:12;;;;;;;1.60;1.15;;;19.30;48.20;;;;;;6190717;28;20052;-67
2022/01/13 05:04:12;;;;;;;2.22;1.33;;;19.30;48.20;;;;;;6196310;28;20332;-67
2022/01/13 05:07:13;;;;;;;1.75;1.20;;;19.30;48.10;;;;;;6196249;28;20065;-67
2022/01/13 05:10:13;;;;;;;2.33;1.15;;;19.30;48.10;;;;;;6196168;28;20048;-67
2022/01/13 05:13:14;;;;;;;1.65;1.20;;;19.30;48.10;;;;;;6196435;28;20341;-67
2022/01/13 05:16:31;;;;;;;2.47;1.10;;;19.30;48.20;;;;;;6196538;28;20358;-67
2022/01/13 05:19:40;;;;;;;2.47;1.27;;;19.30;48.20;;;;;;6196068;28;20102;-67
2022/01/13 05:22:42;;;;;;;1.95;1.25;;;19.30;48.20;;;;;;6195736;28;20069;-67
2022/01/13 05:25:43;;;;;;;2.13;1.23;;;19.30;48.10;;;;;;6195795;28;20030;-67
2022/01/13 05:28:44;;;;;;;2.03;1.20;;;19.30;48.10;;;;;;6194669;28;20473;-67
2022/01/13 05:31:44;;;;;;;2.67;1.38;;;19.30;47.90;;;;;;6195430;28;20034;-67
2022/01/13 05:34:45;;;;;;;2.17;1.17;;;19.30;48.10;;;;;;6195489;28;20471;-67
2022/01/13 05:37:45;;;;;;;2.13;1.17;;;19.30;48.00;;;;;;6193761;28;20109;-68
2022/01/13 05:40:46;;;;;;;2.13;1.35;;;19.40;48.00;;;;;;6194624;28;20038;-68
2022/01/13 05:43:46;;;;;;;1.73;0.90;;;19.30;48.10;;;;;;6195408;28;20038;-68
2022/01/13 05:46:47;;;;;;;1.77;1.17;;;19.40;48.00;;;;;;6193149;28;20117;-67
2022/01/13 05:49:48;;;;;;;1.50;1.10;;;19.30;48.10;;;;;;6195330;28;20027;-68
2022/01/13 05:52:48;;;;;;;1.63;1.10;;;19.40;48.10;;;;;;6183833;28;20110;-67
2022/01/13 05:55:49;;;;;;;1.88;1.30;;;19.30;48.00;;;;;;6174879;28;20045;-67
2022/01/13 05:58:50;;;;;;;1.05;0.95;;;19.40;48.10;;;;;;6170995;28;20117;-68
2022/01/13 06:01:51;;;;;;;2.42;1.20;;;19.30;48.00;;;;;;6189771;28;20069;-67
2022/01/13 06:04:52;;;;;;;3.45;1.33;;;19.40;48.00;;;;;;6194989;28;20034;-67
2022/01/13 06:07:53;;;;;;;3.97;1.40;;;19.40;48.10;;;;;;6194629;28;20073;-68
2022/01/13 06:10:54;;;;;;;2.10;1.17;;;19.40;48.10;;;;;;6194669;28;20026;-67
2022/01/13 06:13:54;;;;;;;2.03;1.20;;;19.40;48.10;;;;;;6194226;28;20034;-67
2022/01/13 06:16:55;;;;;;;1.63;1.10;;;19.40;48.00;;;;;;6194867;28;20071;-68
2022/01/13 06:19:56;;;;;;;2.22;1.08;;;19.40;48.00;;;;;;6190441;28;20097;-67
2022/01/13 06:22:58;;;;;;;1.30;0.90;;;19.40;48.10;;;;;;6194789;28;20038;-68
2022/01/13 06:25:59;;;;;;;1.33;0.82;;;19.40;48.10;;;;;;6194532;28;20039;-67
2022/01/13 06:28:59;;;;;;;1.02;0.90;;;19.40;48.10;;;;;;6194735;28;20030;-67
2022/01/13 06:32:00;;;;;;;1.05;0.90;;;19.40;48.10;;;;;;6194229;28;20042;-67
2022/01/13 06:35:00;;;;;;;1.55;0.93;;;19.40;48.10;;;;;;6194997;28;20658;-67
2022/01/13 06:38:01;;;;;;;1.20;0.80;;;19.40;48.10;;;;;;6194478;28;20030;-67
2022/01/13 06:41:02;;;;;;;1.30;0.90;;;19.40;48.10;;;;;;6199649;28;20030;-67
2022/01/13 06:44:03;;;;;;;1.10;1.00;;;19.40;48.20;;;;;;6199364;28;20607;-67
2022/01/13 06:47:05;;;;;;;1.88;0.73;;;19.40;48.10;;;;;;6199492;28;20361;-67
2022/01/13 06:50:07;;;;;;;1.85;1.25;;;19.40;48.20;;;;;;6199911;28;20109;-68
2022/01/13 06:53:07;;;;;;;1.38;1.00;;;19.40;48.10;;;;;;6199836;28;20080;-67
2022/01/13 06:56:10;;;;;;;1.55;1.17;;;19.40;48.10;;;;;;6214648;28;20235;-67
2022/01/13 06:59:12;;;;;;;1.58;0.85;;;19.40;48.20;;;;;;6199230;28;20074;-67
2022/01/13 07:02:14;;;;;;;1.00;0.73;;;19.40;48.20;;;;;;6200791;28;20047;-67
2022/01/13 07:05:14;;;;;;;1.13;0.88;;;19.40;48.20;;;;;;6201142;28;20113;-67
2022/01/13 07:08:15;;;;;;;1.92;1.20;;;19.40;48.20;;;;;;6192177;28;20046;-67
2022/01/13 07:11:16;;;;;;;1.48;1.00;;;19.40;48.20;;;;;;6176299;28;20089;-67
2022/01/13 07:14:17;;;;;;;1.45;0.90;;;19.40;48.30;;;;;;6176672;28;20019;-67
2022/01/13 07:17:17;;;;;;;1.65;1.20;;;19.40;48.30;;;;;;6180370;28;20469;-67
2022/01/13 07:20:18;;;;;;;1.40;1.10;;;19.40;48.30;;;;;;6204610;28;20140;-67
2022/01/13 07:23:19;;;;;;;1.40;1.02;;;19.40;48.30;;;;;;6196302;28;20027;-67
2022/01/13 07:26:19;;;;;;;1.85;0.93;;;19.40;48.30;;;;;;6175108;28;20027;-68
2022/01/13 07:29:20;;;;;;;2.92;1.20;;;19.40;48.30;;;;;;6194156;28;20448;-68
2022/01/13 07:32:20;;;;;;;1.50;1.08;;;19.40;48.30;;;;;;6198741;28;20102;-68
2022/01/13 07:35:22;;;;;;;3.83;1.13;;;19.40;48.30;;;;;;6198645;28;20512;-68
2022/01/13 07:38:22;;;;;;;1.85;1.20;;;19.40;48.30;;;;;;6199130;28;20271;-68
2022/01/13 07:41:23;;;;;;;1.75;1.10;;;19.40;48.30;;;;;;6198774;28;20081;-68
2022/01/13 07:44:24;;;;;;;1.88;1.30;;;19.40;48.40;;;;;;6198586;28;20084;-68
2022/01/13 07:47:24;;;;;;;1.88;1.10;;;19.40;49.10;;;;;;6198777;28;20050;-67
2022/01/13 07:50:25;;;;;;;1.85;1.20;;;19.40;48.40;;;;;;6197907;28;20138;-68
2022/01/13 07:53:25;;;;;;;2.17;1.20;;;19.40;48.40;;;;;;6182921;28;20097;-67
2022/01/13 07:56:28;;;;;;;1.63;1.17;;;19.50;48.50;;;;;;6174135;28;20031;-67
2022/01/13 07:59:29;;;;;;;2.42;1.20;;;19.40;48.40;;;;;;6174450;28;20111;-68
2022/01/13 08:02:30;;;;;;;2.38;1.20;;;19.40;48.40;;;;;;6189108;28;20046;-68
2022/01/13 08:05:31;;;;;;;2.63;1.23;;;19.40;48.40;;;;;;6174551;28;20127;-68
2022/01/13 08:08:35;;;;;;;1.50;0.90;;;19.40;48.50;;;;;;6173619;28;20058;-68
2022/01/13 08:11:36;;;;;;;1.90;1.13;;;19.40;48.40;;;;;;6184462;28;20425;-67
2022/01/13 08:14:36;;;;;;;1.35;0.98;;;19.40;48.50;;;;;;6197991;28;20022;-68
2022/01/13 08:20:56;;;;;;;3.17;2.03;;;19.40;48.50;;;;;;6197327;28;20038;-68
2022/01/13 08:23:57;;;;;;;14.85;6.68;;;19.40;48.50;;;;;;6208467;28;20082;-67
2022/01/13 08:26:58;;;;;;;8.80;4.78;;;19.30;47.30;;;;;;6212903;28;20315;-68
2022/01/13 08:29:58;;;;;;;17.00;8.65;;;19.20;47.50;;;;;;6194020;28;20461;-67
2022/01/13 08:32:59;;;;;;;14.35;8.07;;;19.20;46.60;;;;;;6187075;28;20030;-68
2022/01/13 08:36:00;;;;;;;18.27;8.82;;;19.10;46.20;;;;;;6197156;28;20073;-69
2022/01/13 08:39:00;;;;;;;16.08;9.23;;;19.10;46.50;;;;;;6197633;28;20030;-68
2022/01/13 08:42:01;;;;;;;18.48;9.88;;;19.00;46.60;;;;;;6197464;28;20053;-68
2022/01/13 08:45:05;;;;;;;20.17;11.05;;;19.00;46.10;;;;;;6197659;28;20056;-68
2022/01/13 08:48:05;;;;;;;20.38;11.30;;;19.00;45.10;;;;;;6196070;28;20088;-67
2022/01/13 08:51:06;;;;;;;18.27;9.25;;;19.00;44.60;;;;;;6197232;28;20027;-68
2022/01/13 08:54:06;;;;;;;19.40;9.65;;;19.10;45.00;;;;;;6187253;28;20034;-68
2022/01/13 08:57:07;;;;;;;16.02;9.40;;;19.20;45.30;;;;;;6196858;28;20345;-68
2022/01/13 09:00:09;;;;;;;17.83;11.13;;;19.20;45.50;;;;;;6196861;28;20037;-68
2022/01/13 09:03:11;;;;;;;18.85;11.68;;;19.20;45.70;;;;;;6196936;28;20537;-68
2022/01/13 09:06:12;;;;;;;19.85;10.80;;;19.30;46.60;;;;;;6197093;28;20030;-68
2022/01/13 09:09:15;;;;;;;15.63;10.90;;;19.30;46.00;;;;;;6196242;28;20493;-68
2022/01/13 09:12:16;;;;;;;15.65;10.35;;;19.30;46.10;;;;;;6196727;28;20033;-68
2022/01/13 09:15:19;;;;;;;17.98;11.35;;;19.30;46.30;;;;;;6196666;28;20477;-68
2022/01/13 09:18:32;;;;;;;14.18;9.98;;;19.30;46.40;;;;;;6196262;28;20392;-68
2022/01/13 09:21:33;;;;;;;15.30;9.77;;;19.30;46.50;;;;;;6196174;28;20066;-68
2022/01/13 09:24:33;;;;;;;14.68;9.25;;;19.30;46.60;;;;;;6220074;28;20048;-68
2022/01/13 09:27:34;;;;;;;15.48;10.15;;;19.30;46.70;;;;;;6220267;28;20445;-67
2022/01/13 09:30:36;;;;;;;13.82;9.25;;;19.30;46.70;;;;;;6194999;28;20023;-68
2022/01/13 09:33:36;;;;;;;16.23;9.35;;;19.30;46.70;;;;;;6192988;28;20477;-68
2022/01/13 09:36:37;;;;;;;12.02;8.50;;;19.30;46.80;;;;;;6196127;28;20027;-68
2022/01/13 09:39:38;;;;;;;15.48;8.95;;;19.30;46.80;;;;;;6210846;28;20030;-68
2022/01/13 09:42:41;;;;;;;16.40;9.75;;;19.40;46.90;;;;;;6196288;28;20400;-68
2022/01/13 09:45:42;;;;;;;13.68;8.75;;;19.40;47.00;;;;;;6196170;28;20053;-68
2022/01/13 09:48:44;;;;;;;13.38;9.50;;;19.40;47.10;;;;;;6194250;28;20022;-69
2022/01/13 09:51:45;;;;;;;10.27;7.47;;;19.40;47.20;;;;;;6195409;28;20030;-68
2022/01/13 09:54:46;;;;;;;15.77;8.63;;;19.40;47.20;;;;;;6195549;28;20084;-68
2022/01/13 09:57:49;;;;;;;15.90;9.52;;;19.40;47.00;;;;;;6194353;28;20027;-68
2022/01/13 10:00:50;;;;;;;19.00;9.45;;;19.40;46.20;;;;;;6195668;28;20382;-68
2022/01/13 10:03:50;;;;;;;13.07;8.45;;;19.40;46.30;;;;;;6192253;28;20034;-68
2022/01/13 10:06:52;;;;;;;13.35;8.13;;;19.40;46.50;;;;;;6192097;28;20431;-68
2022/01/13 10:09:58;;;;;;;15.35;8.48;;;19.40;46.50;;;;;;6193742;28;20054;-68
2022/01/13 10:13:02;;;;;;;11.88;7.70;;;19.40;46.70;;;;;;6193771;28;20528;-68
2022/01/13 10:19:43;;;;;;;12.50;7.38;;;19.40;46.90;;;;;;6195369;28;20026;-68
2022/01/13 10:22:44;;;;;;;10.23;7.03;;;19.40;47.00;;;;;;6192807;28;20495;-68
2022/01/13 10:25:45;;;;;;;12.90;7.35;;;19.40;47.00;;;;;;6194300;28;20057;-68
2022/01/13 10:28:52;;;;;;;9.75;6.55;;;19.40;47.00;;;;;;6193162;28;20072;-68
2022/01/13 10:31:53;;;;;;;8.70;5.93;;;19.40;47.10;;;;;;6195262;28;20033;-68
2022/01/13 10:35:03;;;;;;;12.20;5.70;;;19.40;47.20;;;;;;6195172;28;20489;-68
2022/01/13 10:38:04;;;;;;;10.38;5.80;;;19.40;47.30;;;;;;6195464;28;20018;-68
2022/01/13 10:41:28;;;;;;;13.63;5.95;;;19.40;47.30;;;;;;6193630;28;20481;-68
2022/01/13 10:44:29;;;;;;;7.85;5.75;;;19.40;47.20;;;;;;6191965;28;20049;-68
2022/01/13 10:47:33;;;;;;;11.57;5.35;;;19.40;47.30;;;;;;6194670;28;20440;-69
2022/01/13 10:50:35;;;;;;;9.02;5.80;;;19.40;47.40;;;;;;6195284;28;20025;-68
2022/01/13 10:53:37;;;;;;;8.20;5.20;;;19.40;47.40;;;;;;6194677;28;20420;-68
2022/01/13 10:56:38;;;;;;;7.63;5.18;;;19.40;47.40;;;;;;6195108;28;20408;-68
2022/01/13 10:59:38;;;;;;;8.55;5.13;;;19.40;47.50;;;;;;6195261;28;20023;-68
2022/01/13 11:02:39;;;;;;;8.85;5.22;;;19.40;47.50;;;;;;6194777;28;20400;-68
2022/01/13 11:05:47;;;;;;;6.55;4.47;;;19.40;47.50;;;;;;6194967;28;20085;-68
2022/01/13 11:08:48;;;;;;;9.35;5.03;;;19.40;47.50;;;;;;6193136;28;20046;-68
2022/01/13 11:11:57;;;;;;;8.27;5.30;;;19.40;47.50;;;;;;6195242;28;20037;-68
2022/01/13 11:15:03;;;;;;;7.50;4.72;;;19.40;47.50;;;;;;6195438;28;20030;-68
2022/01/13 11:18:04;;;;;;;8.18;4.72;;;19.40;47.60;;;;;;6194867;28;20424;-68
2022/01/13 11:21:05;;;;;;;5.68;4.35;;;19.40;47.60;;;;;;6194947;28;20034;-68
2022/01/13 11:24:07;;;;;;;6.55;4.30;;;19.40;47.70;;;;;;6216442;28;20037;-68
2022/01/13 11:27:08;;;;;;;5.05;4.05;;;19.40;47.60;;;;;;6204317;28;20038;-68
2022/01/13 11:30:12;;;;;;;6.53;4.15;;;19.40;47.60;;;;;;6199503;28;20026;-68
2022/01/13 11:33:13;;;;;;;5.10;3.83;;;19.40;47.60;;;;;;6197504;28;20030;-68
2022/01/13 11:36:14;;;;;;;5.40;3.97;;;19.40;47.70;;;;;;6197658;28;20061;-68
2022/01/13 11:39:14;;;;;;;5.20;3.65;;;19.40;47.70;;;;;;6195304;28;20042;-68
2022/01/13 11:42:15;;;;;;;5.20;3.70;;;19.40;47.70;;;;;;6205835;28;20034;-67
2022/01/13 11:45:19;;;;;;;5.70;4.00;;;19.40;47.70;;;;;;6223110;28;20033;-68
2022/01/13 11:48:23;;;;;;;4.35;3.67;;;19.40;47.90;;;;;;6190238;28;20081;-68
2022/01/13 11:51:25;;;;;;;4.72;3.72;;;19.50;47.70;;;;;;6193517;28;20049;-68
2022/01/13 11:54:31;;;;;;;4.53;3.17;;;19.50;48.30;;;;;;6214200;28;20097;-69
2022/01/13 11:57:35;;;;;;;8.27;3.83;;;19.60;47.70;;;;;;6197597;28;20076;-68
2022/01/13 12:00:36;;;;;;;6.40;3.70;;;19.60;47.60;;;;;;6198351;28;20153;-68
2022/01/13 12:03:41;;;;;;;9.13;3.40;;;19.60;47.60;;;;;;6193616;28;20389;-68
2022/01/13 12:06:44;;;;;;;12.75;3.60;;;19.70;47.70;;;;;;6199412;28;20081;-71
2022/01/13 12:09:45;;;;;;;4.40;3.65;;;19.70;47.60;;;;;;6197953;28;20504;-70
2022/01/13 12:12:45;;;;;;;5.63;3.30;;;19.70;47.60;;;;;;6198906;28;20023;-68
2022/01/13 12:15:46;;;;;;;5.28;2.80;;;19.70;47.60;;;;;;6199298;28;20106;-69
2022/01/13 12:18:58;;;;;;;4.25;3.17;;;19.70;47.60;;;;;;6198543;28;20026;-69
2022/01/13 12:22:04;;;;;;;6.38;3.25;;;19.70;47.60;;;;;;6199636;28;20044;-69
2022/01/13 12:25:08;;;;;;;5.88;3.20;;;19.70;47.60;;;;;;6211122;28;20077;-68
2022/01/13 12:28:20;;;;;;;3.67;3.08;;;19.70;47.60;;;;;;6207902;28;20034;-68
2022/01/13 12:31:28;;;;;;;6.40;3.15;;;19.70;47.70;;;;;;6197229;28;20045;-68
2022/01/13 12:34:28;;;;;;;3.35;2.72;;;19.70;47.70;;;;;;6197179;28;20054;-69
2022/01/13 12:37:30;;;;;;;4.22;2.80;;;19.70;47.70;;;;;;6196898;28;20088;-68
2022/01/13 12:41:14;;;;;;;4.20;3.00;;;19.70;47.70;;;;;;6197264;28;20038;-68
2022/01/13 12:45:27;;;;;;;4.00;2.92;;;19.70;47.70;;;;;;6197867;28;20026;-68
2022/01/13 12:47:36;;;;;;;3.75;2.85;;;19.70;47.70;;;;;;6196758;28;20026;-68
2022/01/13 12:50:38;;;;;;;6.05;3.15;;;19.70;47.70;;;;;;6197509;28;20022;-68
2022/01/13 12:53:39;;;;;;;7.18;3.50;;;19.70;47.80;;;;;;6196996;28;20034;-68
2022/01/13 12:56:40;;;;;;;4.40;3.00;;;19.70;47.80;;;;;;6196526;28;20862;-69
2022/01/13 12:59:40;;;;;;;4.95;3.35;;;19.70;47.80;;;;;;6196759;28;20034;-69
2022/01/13 13:02:56;;;;;;;5.50;3.50;;;19.70;47.80;;;;;;6196466;28;20116;-68
2022/01/13 13:05:57;;;;;;;7.07;4.03;;;19.70;47.80;;;;;;6196665;28;20033;-68
2022/01/13 13:09:03;;;;;;;8.13;3.60;;;19.70;47.80;;;;;;6196240;28;20042;-68
2022/01/13 13:12:08;;;;;;;7.95;3.95;;;19.70;47.80;;;;;;6196516;28;20026;-68
2022/01/13 13:18:21;;;;;;;7.75;4.20;;;19.70;47.80;;;;;;6194005;28;20104;-69
2022/01/13 13:21:21;;;;;;;7.53;3.60;;;19.70;47.80;;;;;;6192780;28;20042;-68
2022/01/13 13:24:23;;;;;;;7.47;3.35;;;19.70;47.90;;;;;;6196609;28;20037;-68
2022/01/13 13:27:30;;;;;;;14.98;4.78;;;19.70;47.90;;;;;;6198224;28;20041;-68
2022/01/13 13:30:44;;;;;;;14.45;5.45;;;19.70;47.90;;;;;;6197712;28;20542;-68
2022/01/13 13:34:04;;;;;;;8.13;4.30;;;19.70;47.80;;;;;;6196862;28;20393;-68
2022/01/13 13:37:11;;;;;;;9.07;4.80;;;19.70;47.70;;;;;;6197226;28;20038;-68
2022/01/13 13:40:24;;;;;;;9.30;4.88;;;19.60;47.30;;;;;;6197518;28;20374;-69
2022/01/13 13:43:34;;;;;;;9.20;4.57;;;19.70;47.30;;;;;;6197263;28;20489;-68
2022/01/13 13:46:37;;;;;;;9.07;4.32;;;19.70;47.30;;;;;;6196676;28;20026;-68
2022/01/13 13:49:40;;;;;;;8.38;3.92;;;19.70;47.40;;;;;;6196760;28;20023;-69
2022/01/13 13:52:40;;;;;;;8.88;4.38;;;19.70;47.40;;;;;;6196947;28;20030;-68
2022/01/13 13:56:03;;;;;;;9.05;3.63;;;19.70;47.40;;;;;;6197359;28;20031;-69
2022/01/13 13:59:04;;;;;;;7.93;4.00;;;19.70;47.40;;;;;;6197140;28;20054;-68
2022/01/13 14:02:08;;;;;;;6.35;3.63;;;19.70;47.50;;;;;;6196967;28;20489;-68
2022/01/13 14:05:10;;;;;;;6.55;3.50;;;19.70;47.40;;;;;;6196895;28;20053;-68
2022/01/13 14:08:11;;;;;;;8.52;3.50;;;19.70;47.50;;;;;;6196613;28;20137;-69
2022/01/13 14:11:11;;;;;;;11.43;3.55;;;19.70;47.50;;;;;;6195694;28;20027;-69
2022/01/13 14:14:14;;;;;;;7.35;3.55;;;19.70;47.50;;;;;;6196804;28;20029;-69
2022/01/13 14:17:27;;;;;;;7.00;3.47;;;19.70;47.50;;;;;;6196452;28;20026;-68
2022/01/13 14:20:28;;;;;;;8.73;4.28;;;19.70;47.50;;;;;;6196500;28;20037;-68
2022/01/13 14:23:31;;;;;;;6.68;3.30;;;19.70;47.50;;;;;;6196348;28;20424;-68
2022/01/13 14:26:34;;;;;;;4.28;2.80;;;19.70;47.50;;;;;;6196516;28;20489;-69
2022/01/13 14:29:35;;;;;;;4.00;2.67;;;19.70;47.50;;;;;;6196632;28;20031;-68
2022/01/13 14:32:35;;;;;;;4.68;3.05;;;19.70;47.50;;;;;;6196335;28;20015;-68
2022/01/13 14:35:36;;;;;;;4.00;2.58;;;19.70;47.50;;;;;;6196593;28;20058;-68
2022/01/13 14:38:40;;;;;;;4.53;2.60;;;19.70;47.50;;;;;;6196108;28;20026;-69
2022/01/13 14:41:43;;;;;;;4.80;2.97;;;19.70;47.50;;;;;;6196566;28;20035;-69
2022/01/13 14:44:44;;;;;;;6.75;2.65;;;19.70;47.50;;;;;;6196821;28;20157;-69
2022/01/13 14:47:46;;;;;;;5.32;2.33;;;19.70;47.50;;;;;;6196369;28;20106;-68
2022/01/13 14:50:48;;;;;;;6.28;2.80;;;19.70;47.50;;;;;;6196362;28;20206;-69
2022/01/13 14:53:50;;;;;;;5.47;3.00;;;19.70;47.50;;;;;;6177120;28;20107;-68
2022/01/13 14:56:50;;;;;;;4.70;2.67;;;19.70;47.60;;;;;;6172178;28;20023;-68
2022/01/13 14:59:51;;;;;;;3.63;2.30;;;19.70;47.50;;;;;;6176944;28;20019;-68
2022/01/13 15:02:51;;;;;;;3.75;2.30;;;19.70;47.60;;;;;;6200955;28;20035;-68
2022/01/13 15:05:53;;;;;;;3.97;2.25;;;19.70;47.50;;;;;;6200903;28;20027;-68
2022/01/13 15:08:54;;;;;;;4.15;2.40;;;19.70;47.60;;;;;;6200640;28;20513;-68
2022/01/13 15:11:55;;;;;;;3.28;2.30;;;19.70;47.60;;;;;;6200627;28;20085;-68
2022/01/13 15:14:55;;;;;;;3.42;2.60;;;19.70;47.60;;;;;;6200767;28;20037;-68
2022/01/13 15:17:56;;;;;;;5.07;2.72;;;19.70;47.60;;;;;;6200434;28;20034;-68
2022/01/13 15:21:00;;;;;;;4.22;2.40;;;19.70;47.60;;;;;;6200579;28;20129;-69
2022/01/13 15:24:01;;;;;;;3.38;2.08;;;19.70;47.60;;;;;;6200635;28;20036;-68
2022/01/13 15:27:01;;;;;;;3.30;2.10;;;19.70;47.70;;;;;;6200728;28;20135;-68
2022/01/13 15:30:03;;;;;;;2.72;2.00;;;19.70;47.70;;;;;;6200400;28;20030;-68
2022/01/13 15:33:04;;;;;;;3.38;2.28;;;19.70;47.80;;;;;;6200248;28;20093;-69
2022/01/13 15:36:04;;;;;;;3.15;2.25;;;19.70;47.80;;;;;;6200081;28;20022;-69
2022/01/13 15:39:06;;;;;;;3.42;2.30;;;19.60;47.80;;;;;;6200644;28;20037;-68
2022/01/13 15:42:07;;;;;;;4.82;2.47;;;19.60;47.70;;;;;;6200192;28;20044;-68
2022/01/13 15:45:09;;;;;;;3.13;1.92;;;19.60;47.80;;;;;;6200173;28;20077;-69
2022/01/13 15:48:10;;;;;;;4.60;2.65;;;19.60;47.80;;;;;;6199984;28;20488;-68
2022/01/13 15:51:14;;;;;;;3.97;2.35;;;19.60;47.90;;;;;;6200046;28;20018;-69
2022/01/13 15:54:14;;;;;;;3.85;1.90;;;19.60;47.90;;;;;;6177439;28;20050;-68
2022/01/13 15:57:15;;;;;;;3.00;1.90;;;19.60;47.80;;;;;;6175608;28;20101;-68
2022/01/13 16:00:18;;;;;;;4.55;1.90;;;19.60;47.90;;;;;;6182520;28;20083;-68
2022/01/13 16:03:18;;;;;;;2.45;1.85;;;19.60;48.00;;;;;;6199859;28;20037;-68
2022/01/13 16:06:19;;;;;;;3.70;1.90;;;19.60;47.90;;;;;;6183286;28;20027;-68
2022/01/13 16:09:19;;;;;;;3.40;1.92;;;19.60;48.00;;;;;;6193761;28;20503;-68
2022/01/13 16:12:20;;;;;;;3.10;2.28;;;19.60;48.00;;;;;;6196142;28;20072;-68
2022/01/13 16:15:20;;;;;;;3.17;1.70;;;19.60;48.00;;;;;;6196597;28;20030;-68
2022/01/13 16:18:21;;;;;;;3.58;1.63;;;19.60;48.00;;;;;;6194881;28;20457;-69